Time;durP1;ratioP1;P1;durP2;ratioP2;P2;SDS_P1;SDS_P2;PMS_P1;PMS_P2;Temp;Humidity;BMP_temperature;BMP_pressure;BME280_temperature;BME280_humidity;BME280_pressure;Samples;Min_cycle;Max_cycle;Signal;HPM_P1;HPM_P2
2022/03/25 00:02:00;;;;;;;68.97;28.50;;;4.10;90.00;;;;;;5011436;28;20030;-78
2022/03/25 00:04:25;;;;;;;76.03;29.17;;;4.00;90.60;;;;;;5011512;28;20113;-78
2022/03/25 00:06:52;;;;;;;80.87;31.73;;;4.10;90.50;;;;;;5025206;22;20072;-80
2022/03/25 00:09:17;;;;;;;70.20;28.60;;;4.00;90.40;;;;;;5009909;28;20069;-80
2022/03/25 00:11:43;;;;;;;79.97;29.43;;;4.10;90.10;;;;;;5011373;28;20049;-79
2022/03/25 00:14:11;;;;;;;79.20;30.00;;;4.00;90.00;;;;;;5011374;28;20394;-79
2022/03/25 00:16:37;;;;;;;67.87;27.30;;;3.90;90.00;;;;;;5011109;28;20025;-79
2022/03/25 00:19:03;;;;;;;68.20;28.17;;;4.00;90.10;;;;;;5011316;28;20044;-79
2022/03/25 00:21:29;;;;;;;72.77;28.90;;;4.10;89.70;;;;;;5011203;28;20057;-79
2022/03/25 00:23:55;;;;;;;76.90;28.93;;;4.00;89.50;;;;;;5010792;28;20057;-79
2022/03/25 00:26:21;;;;;;;72.83;28.10;;;3.90;90.00;;;;;;5010963;28;20032;-79
2022/03/25 00:28:47;;;;;;;75.70;27.80;;;3.90;89.60;;;;;;5010904;28;20458;-80
2022/03/25 00:31:13;;;;;;;73.63;27.53;;;3.80;90.50;;;;;;5011064;28;20058;-80
2022/03/25 00:33:43;;;;;;;71.17;26.97;;;3.80;90.40;;;;;;5011254;28;20070;-79
2022/03/25 00:36:12;;;;;;;69.13;26.47;;;3.70;90.90;;;;;;5004230;28;20026;-79
2022/03/25 00:38:38;;;;;;;68.13;27.07;;;3.70;90.40;;;;;;5010317;28;20501;-79
2022/03/25 00:41:07;;;;;;;75.07;28.10;;;3.70;91.20;;;;;;5010728;28;20030;-79
2022/03/25 00:43:36;;;;;;;74.03;27.47;;;3.70;90.80;;;;;;5008583;28;20071;-79
2022/03/25 00:46:02;;;;;;;68.87;28.10;;;3.60;91.00;;;;;;5009917;28;20018;-79
2022/03/25 00:48:27;;;;;;;70.47;27.43;;;3.60;91.00;;;;;;5009899;28;20489;-80
2022/03/25 00:50:54;;;;;;;68.80;26.67;;;3.60;90.90;;;;;;5011060;28;20424;-80
2022/03/25 00:53:19;;;;;;;68.33;26.87;;;3.60;90.70;;;;;;5010548;28;20045;-79
2022/03/25 00:55:45;;;;;;;66.27;27.30;;;3.60;90.70;;;;;;5010768;28;20030;-79
2022/03/25 00:58:11;;;;;;;64.77;27.00;;;3.50;91.50;;;;;;5011082;28;20030;-79
2022/03/25 01:00:37;;;;;;;76.27;29.67;;;3.40;91.30;;;;;;4992954;28;20582;-79
2022/03/25 01:03:03;;;;;;;75.20;27.83;;;3.40;91.40;;;;;;5010494;28;20101;-79
2022/03/25 01:05:30;;;;;;;72.50;28.03;;;3.40;91.20;;;;;;5010780;28;20080;-79
2022/03/25 01:07:55;;;;;;;71.70;27.67;;;3.30;91.40;;;;;;5022273;23;20638;-78
2022/03/25 01:10:23;;;;;;;73.90;28.53;;;3.30;91.30;;;;;;5010486;28;20044;-78
2022/03/25 01:12:49;;;;;;;68.77;26.97;;;3.20;91.40;;;;;;5014381;28;20546;-78
2022/03/25 01:15:14;;;;;;;75.63;27.90;;;3.30;91.60;;;;;;5014732;28;20113;-78
2022/03/25 01:17:40;;;;;;;76.50;28.53;;;3.30;91.40;;;;;;5014289;28;20030;-78
2022/03/25 01:20:07;;;;;;;71.03;26.97;;;3.30;91.10;;;;;;5014426;28;20018;-78
2022/03/25 01:22:33;;;;;;;70.40;27.07;;;3.20;91.20;;;;;;5013800;28;20017;-78
2022/03/25 01:24:58;;;;;;;72.53;27.87;;;3.20;91.50;;;;;;5014211;28;20010;-77
2022/03/25 01:27:24;;;;;;;69.93;26.23;;;3.20;91.50;;;;;;5014117;28;20018;-78
2022/03/25 01:29:50;;;;;;;68.13;27.13;;;3.20;91.40;;;;;;5014150;28;20026;-78
2022/03/25 01:32:16;;;;;;;65.07;26.93;;;3.10;91.80;;;;;;5013423;28;20089;-78
2022/03/25 01:34:42;;;;;;;65.93;26.30;;;3.10;92.00;;;;;;5013544;28;20406;-78
2022/03/25 01:37:08;;;;;;;60.87;25.63;;;3.10;92.10;;;;;;5013770;28;20080;-77
2022/03/25 01:39:33;;;;;;;68.40;26.40;;;3.00;92.00;;;;;;5014443;28;20021;-78
2022/03/25 01:41:59;;;;;;;68.60;26.10;;;3.10;92.40;;;;;;5013959;28;20474;-78
2022/03/25 01:44:29;;;;;;;64.77;24.90;;;3.20;91.70;;;;;;5014245;28;20385;-78
2022/03/25 01:46:57;;;;;;;64.03;24.77;;;3.10;91.50;;;;;;5013831;28;20018;-78
2022/03/25 01:49:23;;;;;;;71.50;25.13;;;3.10;91.90;;;;;;5013786;28;20072;-78
2022/03/25 01:51:51;;;;;;;63.70;25.80;;;3.20;91.70;;;;;;5013529;28;20029;-78
2022/03/25 01:54:24;;;;;;;66.00;26.70;;;3.10;91.50;;;;;;5013415;28;20026;-78
2022/03/25 01:57:03;;;;;;;63.33;25.27;;;3.10;90.90;;;;;;5013584;28;20105;-78
2022/03/25 01:59:30;;;;;;;59.90;23.83;;;3.00;90.90;;;;;;5013761;28;20084;-78
2022/03/25 02:01:56;;;;;;;67.63;26.33;;;3.00;91.50;;;;;;5013616;28;20048;-78
2022/03/25 02:04:23;;;;;;;67.77;25.03;;;2.90;91.20;;;;;;5013717;28;20018;-77
2022/03/25 02:06:50;;;;;;;68.70;25.27;;;2.90;91.50;;;;;;5013292;28;20077;-78
2022/03/25 02:09:16;;;;;;;67.87;26.43;;;2.80;91.80;;;;;;5012913;28;20069;-78
2022/03/25 02:11:42;;;;;;;64.10;26.00;;;2.70;92.10;;;;;;5013407;28;20052;-78
2022/03/25 02:14:09;;;;;;;66.07;26.17;;;2.80;92.90;;;;;;5013183;28;20028;-78
2022/03/25 02:16:36;;;;;;;60.60;25.33;;;2.80;91.80;;;;;;5013069;28;20014;-77
2022/03/25 02:19:03;;;;;;;72.83;25.47;;;2.70;92.30;;;;;;5013418;28;20382;-78
2022/03/25 02:21:30;;;;;;;60.03;24.50;;;2.70;91.80;;;;;;5013262;28;20022;-78
2022/03/25 02:23:56;;;;;;;68.63;25.70;;;2.70;91.60;;;;;;5012004;28;20103;-77
2022/03/25 02:26:23;;;;;;;72.30;26.83;;;2.70;91.90;;;;;;5013162;28;20454;-78
2022/03/25 02:28:48;;;;;;;62.00;27.07;;;2.70;91.40;;;;;;5006284;28;20026;-77
2022/03/25 02:31:17;;;;;;;70.00;24.30;;;2.60;91.80;;;;;;5012815;28;20032;-77
2022/03/25 02:33:43;;;;;;;64.97;25.63;;;2.50;91.90;;;;;;5012970;28;20046;-78
2022/03/25 02:36:09;;;;;;;62.93;25.63;;;2.50;92.30;;;;;;5012791;28;20025;-78
2022/03/25 02:38:35;;;;;;;60.87;22.60;;;2.50;92.10;;;;;;5024917;22;20034;-78
2022/03/25 02:41:01;;;;;;;70.53;26.07;;;2.50;92.20;;;;;;5013016;28;20041;-78
2022/03/25 02:43:26;;;;;;;66.23;24.70;;;2.50;92.00;;;;;;5013299;28;20021;-78
2022/03/25 02:45:53;;;;;;;65.80;24.27;;;2.40;91.90;;;;;;5012874;28;20466;-78
2022/03/25 02:48:19;;;;;;;60.03;23.80;;;2.40;92.40;;;;;;5012790;28;20060;-78
2022/03/25 02:50:46;;;;;;;62.57;24.43;;;2.50;92.10;;;;;;5013118;28;20018;-77
2022/03/25 02:53:13;;;;;;;59.73;22.10;;;2.40;92.00;;;;;;5012376;28;20434;-78
2022/03/25 02:55:39;;;;;;;62.87;23.27;;;2.50;91.80;;;;;;5012668;28;20014;-78
2022/03/25 02:58:05;;;;;;;55.57;23.70;;;2.50;91.70;;;;;;5012612;28;20018;-77
2022/03/25 03:00:31;;;;;;;65.87;24.53;;;2.50;91.60;;;;;;5012232;28;20014;-79
2022/03/25 03:03:00;;;;;;;63.50;23.73;;;2.40;92.30;;;;;;5012468;28;20096;-78
2022/03/25 03:05:27;;;;;;;58.37;23.37;;;2.40;92.60;;;;;;5012821;28;20018;-78
2022/03/25 03:07:53;;;;;;;55.50;20.67;;;2.30;92.50;;;;;;5005585;28;20552;-78
2022/03/25 03:10:19;;;;;;;60.60;24.73;;;2.30;92.90;;;;;;5012425;28;20014;-78
2022/03/25 03:12:45;;;;;;;61.23;25.03;;;2.10;92.70;;;;;;5011897;28;20030;-78
2022/03/25 03:15:12;;;;;;;71.10;25.20;;;2.00;93.10;;;;;;5012170;28;20029;-77
2022/03/25 03:17:39;;;;;;;63.03;24.00;;;2.10;93.20;;;;;;5011949;28;20022;-78
2022/03/25 03:20:06;;;;;;;57.27;23.10;;;2.10;93.10;;;;;;5011133;28;20029;-78
2022/03/25 03:22:32;;;;;;;62.53;24.50;;;2.10;92.80;;;;;;5011337;28;20025;-78
2022/03/25 03:24:57;;;;;;;55.70;21.90;;;2.10;92.50;;;;;;5010061;28;20171;-77
2022/03/25 03:27:24;;;;;;;60.33;24.53;;;2.10;92.90;;;;;;5004096;28;20033;-78
2022/03/25 03:29:50;;;;;;;55.83;22.67;;;2.00;92.70;;;;;;5011496;28;20036;-78
2022/03/25 03:32:18;;;;;;;67.07;24.30;;;1.90;93.00;;;;;;5010834;28;20406;-78
2022/03/25 03:34:44;;;;;;;55.77;22.30;;;1.80;93.30;;;;;;5011750;28;20022;-78
2022/03/25 03:37:10;;;;;;;56.77;23.27;;;1.70;93.70;;;;;;5022849;23;20010;-83
2022/03/25 03:39:35;;;;;;;61.10;21.90;;;1.80;94.00;;;;;;5011175;28;20042;-82
2022/03/25 03:42:03;;;;;;;59.13;23.37;;;1.90;93.90;;;;;;5011830;28;20037;-83
2022/03/25 03:44:29;;;;;;;60.37;22.63;;;1.90;93.10;;;;;;5011584;28;20025;-83
2022/03/25 03:46:56;;;;;;;52.83;20.63;;;1.90;93.50;;;;;;5012071;28;20014;-82
2022/03/25 03:49:22;;;;;;;54.47;20.27;;;1.90;93.20;;;;;;5011738;28;20022;-82
2022/03/25 03:51:48;;;;;;;55.73;23.23;;;1.90;93.30;;;;;;5011745;28;20026;-82
2022/03/25 03:54:14;;;;;;;60.50;22.33;;;1.90;93.10;;;;;;5011503;28;20037;-83
2022/03/25 03:56:40;;;;;;;54.80;21.90;;;1.90;93.10;;;;;;5011523;28;20029;-83
2022/03/25 03:59:05;;;;;;;61.37;21.93;;;1.90;93.10;;;;;;5010955;28;20378;-83
2022/03/25 04:01:31;;;;;;;69.10;24.50;;;1.80;92.80;;;;;;5012071;28;20071;-83
2022/03/25 04:03:57;;;;;;;58.73;24.03;;;1.80;93.60;;;;;;5011456;28;20030;-83
2022/03/25 04:06:22;;;;;;;52.37;20.83;;;1.80;93.30;;;;;;5011600;28;20021;-83
2022/03/25 04:08:49;;;;;;;59.00;22.40;;;1.80;93.00;;;;;;5011546;28;20159;-83
2022/03/25 04:11:15;;;;;;;51.83;20.33;;;1.90;92.90;;;;;;5011262;28;20359;-83
2022/03/25 04:13:43;;;;;;;56.17;21.87;;;1.80;92.90;;;;;;5011190;28;20040;-82
2022/03/25 04:16:10;;;;;;;62.67;23.27;;;1.80;92.90;;;;;;5011549;28;20022;-83
2022/03/25 04:18:37;;;;;;;55.57;21.30;;;1.90;92.50;;;;;;5011398;28;20029;-83
2022/03/25 04:21:03;;;;;;;51.63;21.27;;;1.90;92.60;;;;;;4993566;28;20036;-83
2022/03/25 04:23:29;;;;;;;60.73;21.77;;;1.90;92.60;;;;;;5011181;28;20500;-82
2022/03/25 04:25:55;;;;;;;55.47;21.77;;;1.80;92.60;;;;;;5010863;28;20043;-83
2022/03/25 04:28:21;;;;;;;61.93;21.93;;;1.80;92.80;;;;;;5011111;28;20037;-83
2022/03/25 04:30:47;;;;;;;50.00;19.67;;;1.80;93.10;;;;;;5010991;28;20096;-82
2022/03/25 04:33:13;;;;;;;57.27;21.10;;;1.80;93.20;;;;;;5010136;28;20026;-82
2022/03/25 04:35:39;;;;;;;54.70;21.20;;;1.80;93.10;;;;;;5009791;28;20084;-82
2022/03/25 04:38:05;;;;;;;54.77;21.10;;;1.80;92.80;;;;;;5022702;23;20552;-79
2022/03/25 04:40:32;;;;;;;56.30;20.83;;;1.80;92.90;;;;;;5010856;28;20030;-79
2022/03/25 04:42:59;;;;;;;55.67;20.77;;;1.80;92.70;;;;;;5010515;28;20065;-78
2022/03/25 04:45:25;;;;;;;51.40;19.63;;;1.80;92.50;;;;;;5010104;28;20022;-78
2022/03/25 04:47:52;;;;;;;60.27;22.07;;;1.80;92.30;;;;;;5010955;28;20104;-78
2022/03/25 04:50:18;;;;;;;58.10;21.97;;;1.80;92.30;;;;;;5010676;28;20492;-78
2022/03/25 04:52:45;;;;;;;61.50;24.87;;;1.80;92.50;;;;;;5010321;28;20044;-78
2022/03/25 04:55:11;;;;;;;60.07;22.77;;;1.80;92.30;;;;;;5010848;28;20026;-78
2022/03/25 04:57:38;;;;;;;58.83;22.23;;;1.70;92.60;;;;;;5010672;28;20034;-78
2022/03/25 05:00:04;;;;;;;68.60;24.33;;;1.60;92.80;;;;;;5010739;28;20025;-79
2022/03/25 05:02:30;;;;;;;58.47;20.73;;;1.60;92.90;;;;;;5011132;28;20109;-78
2022/03/25 05:04:56;;;;;;;58.80;22.67;;;1.60;93.20;;;;;;5010774;28;20112;-78
2022/03/25 05:07:22;;;;;;;68.50;24.27;;;1.60;93.50;;;;;;5010202;28;20428;-78
2022/03/25 05:09:48;;;;;;;62.17;21.77;;;1.60;93.40;;;;;;5009890;28;20639;-78
2022/03/25 05:12:14;;;;;;;59.43;21.70;;;1.60;93.40;;;;;;5009482;28;20033;-78
2022/03/25 05:14:40;;;;;;;59.50;21.93;;;1.60;93.80;;;;;;5009606;28;20025;-78
2022/03/25 05:17:06;;;;;;;56.90;21.63;;;1.60;93.60;;;;;;5009845;28;20037;-78
2022/03/25 05:19:33;;;;;;;52.60;22.37;;;1.50;93.20;;;;;;5010750;28;20026;-78
2022/03/25 05:21:58;;;;;;;65.00;23.43;;;1.60;93.00;;;;;;5010674;28;20018;-78
2022/03/25 05:24:25;;;;;;;60.00;23.10;;;1.60;93.00;;;;;;5010531;28;20690;-78
2022/03/25 05:26:51;;;;;;;56.73;23.73;;;1.60;92.80;;;;;;5003737;28;20026;-79
2022/03/25 05:29:17;;;;;;;62.00;21.67;;;1.60;93.00;;;;;;5010710;28;20025;-78
2022/03/25 05:31:43;;;;;;;66.70;25.13;;;1.60;93.30;;;;;;5010699;28;20026;-79
2022/03/25 05:34:09;;;;;;;64.83;23.17;;;1.40;92.90;;;;;;5010853;28;20032;-80
2022/03/25 05:36:35;;;;;;;79.17;27.77;;;1.30;92.90;;;;;;5010280;28;20024;-79
2022/03/25 06:38:34;;;;;;;76.23;26.53;;;1.20;94.10;;;;;;5421874;22;19921;-79
2022/03/25 06:41:01;;;;;;;76.87;27.90;;;1.30;94.10;;;;;;5013034;28;20033;-79
2022/03/25 06:43:27;;;;;;;71.23;24.93;;;1.40;93.90;;;;;;5012942;28;20026;-79
2022/03/25 06:45:53;;;;;;;74.57;26.90;;;1.60;93.50;;;;;;5011773;28;20025;-79
2022/03/25 06:48:19;;;;;;;73.43;26.97;;;1.70;93.30;;;;;;5011245;28;20032;-79
2022/03/25 06:50:45;;;;;;;78.67;28.43;;;1.80;93.30;;;;;;4994172;28;20517;-79
2022/03/25 06:53:11;;;;;;;84.60;28.33;;;1.90;93.30;;;;;;5012590;28;20682;-79
2022/03/25 06:55:37;;;;;;;83.80;29.20;;;1.90;93.10;;;;;;5012744;28;20061;-79
2022/03/25 06:58:03;;;;;;;96.70;28.00;;;2.10;93.10;;;;;;4994777;28;20434;-79
2022/03/25 07:00:29;;;;;;;74.47;27.70;;;2.20;92.70;;;;;;5012961;28;20427;-79
2022/03/25 07:02:55;;;;;;;74.53;27.33;;;2.30;92.70;;;;;;5012326;28;20068;-79
2022/03/25 07:05:23;;;;;;;73.67;28.30;;;2.40;92.30;;;;;;5012244;28;20018;-79
2022/03/25 07:07:49;;;;;;;73.70;27.23;;;2.60;92.00;;;;;;5012351;28;20117;-79
2022/03/25 07:10:16;;;;;;;77.43;27.43;;;2.80;91.60;;;;;;5012265;28;20166;-79
2022/03/25 07:12:46;;;;;;;71.83;27.97;;;2.80;91.50;;;;;;4994405;28;20026;-79
2022/03/25 07:15:12;;;;;;;66.77;24.40;;;3.00;91.10;;;;;;5012438;28;20096;-78
2022/03/25 07:17:38;;;;;;;69.47;26.03;;;3.20;90.80;;;;;;5012188;28;20022;-79
2022/03/25 07:20:08;;;;;;;63.17;24.60;;;3.30;90.60;;;;;;5012003;28;20540;-79
2022/03/25 07:22:34;;;;;;;67.03;27.03;;;3.50;90.70;;;;;;5011324;28;20037;-79
2022/03/25 07:25:00;;;;;;;68.93;24.70;;;3.70;90.30;;;;;;5011574;28;20045;-78
2022/03/25 07:27:26;;;;;;;65.47;26.70;;;3.90;90.00;;;;;;5011492;28;20022;-78
2022/03/25 07:29:52;;;;;;;70.77;26.07;;;4.10;89.90;;;;;;5011140;28;20080;-79
2022/03/25 07:32:18;;;;;;;67.13;26.57;;;4.30;89.70;;;;;;5010157;28;20025;-78
2022/03/25 07:34:43;;;;;;;70.73;25.63;;;4.50;90.30;;;;;;5010490;28;20168;-78
2022/03/25 07:39:38;;;;;;;59.43;24.37;;;5.00;86.60;;;;;;4989634;28;20735;-82
2022/03/25 07:42:04;;;;;;;66.20;26.23;;;5.20;85.90;;;;;;4991666;28;20014;-83
2022/03/25 07:44:31;;;;;;;72.60;26.03;;;5.50;85.30;;;;;;4991551;28;20045;-84
2022/03/25 07:46:57;;;;;;;68.40;25.97;;;5.70;85.30;;;;;;4985458;28;20459;-83
2022/03/25 07:49:22;;;;;;;63.90;25.40;;;5.90;84.40;;;;;;4972165;28;20030;-83
2022/03/25 07:51:48;;;;;;;72.57;26.27;;;6.10;84.40;;;;;;4972565;28;20098;-82
2022/03/25 07:54:14;;;;;;;76.97;28.10;;;6.30;83.90;;;;;;4972635;28;20022;-82
2022/03/25 07:56:39;;;;;;;71.97;29.33;;;6.60;84.50;;;;;;4972460;28;20511;-82
2022/03/25 07:59:05;;;;;;;75.80;29.83;;;6.90;81.20;;;;;;4972320;28;20464;-82
2022/03/25 08:01:31;;;;;;;87.00;31.77;;;7.30;79.20;;;;;;4972822;28;20023;-83
2022/03/25 08:03:57;;;;;;;88.57;30.70;;;7.70;74.70;;;;;;4955466;28;20615;-83
2022/03/25 08:06:23;;;;;;;79.30;28.40;;;8.00;73.30;;;;;;4972631;28;20015;-83
2022/03/25 08:08:49;;;;;;;92.95;34.75;;;8.40;74.20;;;;;;4971236;28;20402;-82
2022/03/25 08:11:18;;;;;;;78.40;31.02;;;8.60;71.10;;;;;;4972106;28;20027;-83
2022/03/25 08:13:44;;;;;;;82.85;32.17;;;9.00;70.10;;;;;;4972161;28;20055;-83
2022/03/25 08:16:10;;;;;;;77.22;30.85;;;9.10;71.80;;;;;;4971959;28;20109;-83
2022/03/25 08:18:35;;;;;;;85.80;32.70;;;9.30;71.40;;;;;;4954400;28;20031;-83
2022/03/25 08:21:02;;;;;;;79.68;30.80;;;9.50;69.70;;;;;;4971866;28;20113;-83
2022/03/25 08:28:59;;;;;;;88.75;31.75;;;10.20;67.20;;;;;;4973230;28;20387;-84
2022/03/25 08:31:25;;;;;;;83.28;33.05;;;10.40;67.00;;;;;;4972861;28;20099;-83
2022/03/25 08:33:51;;;;;;;81.53;34.25;;;10.60;66.60;;;;;;4972598;28;20114;-83
2022/03/25 08:36:17;;;;;;;84.05;32.58;;;10.80;68.20;;;;;;4971691;28;20038;-84
2022/03/25 09:38:16;;;;;;;69.53;35.85;;;20.60;43.10;;;;;;5638638;22;20446;-78
2022/03/25 09:40:45;;;;;;;70.70;35.72;;;20.60;42.20;;;;;;4995386;28;20610;-77
2022/03/25 09:43:12;;;;;;;71.10;35.45;;;21.30;43.50;;;;;;4995462;28;20021;-78
2022/03/25 09:45:37;;;;;;;68.22;35.50;;;21.60;39.30;;;;;;4995298;28;20037;-77
2022/03/25 09:48:04;;;;;;;71.13;36.65;;;22.10;41.50;;;;;;4975607;28;20022;-78
2022/03/25 09:50:33;;;;;;;69.95;35.88;;;23.00;39.70;;;;;;4975770;28;20015;-77
2022/03/25 09:52:59;;;;;;;68.65;35.40;;;23.80;38.10;;;;;;4975432;28;20077;-77
2022/03/25 09:55:25;;;;;;;63.75;34.80;;;24.30;37.20;;;;;;4975894;28;20027;-78
2022/03/25 09:57:50;;;;;;;66.70;37.17;;;25.40;36.00;;;;;;4975610;28;20659;-78
2022/03/25 10:00:18;;;;;;;70.32;36.08;;;25.80;31.30;;;;;;4975530;28;20483;-78
2022/03/25 10:02:45;;;;;;;65.50;34.55;;;26.00;33.20;;;;;;4975698;28;20538;-78
2022/03/25 10:05:16;;;;;;;63.50;36.45;;;26.00;31.80;;;;;;4975478;28;20035;-78
2022/03/25 10:07:49;;;;;;;78.28;38.20;;;26.80;32.40;;;;;;4957880;28;20043;-77
2022/03/25 10:10:20;;;;;;;76.32;39.85;;;26.90;30.80;;;;;;4975420;28;20034;-77
2022/03/25 10:12:47;;;;;;;;;;;26.60;32.00;;;;;;4975794;28;20113;-77
2022/03/25 10:15:15;;;;;;;71.05;37.70;;;27.20;30.70;;;;;;4958011;28;20409;-77
2022/03/25 10:18:01;;;;;;;79.32;38.85;;;27.20;29.80;;;;;;4975288;28;20027;-77
2022/03/25 10:20:37;;;;;;;70.47;38.22;;;26.70;31.20;;;;;;4969721;28;20050;-78
2022/03/25 10:23:17;;;;;;;66.25;36.78;;;27.90;30.30;;;;;;4968366;28;20098;-77
2022/03/25 10:25:56;;;;;;;70.75;38.20;;;28.40;30.40;;;;;;4981920;28;20476;-78
2022/03/25 10:28:27;;;;;;;80.60;43.47;;;29.00;30.90;;;;;;4975244;28;20387;-77
2022/03/25 10:30:59;;;;;;;75.18;44.10;;;27.30;28.50;;;;;;4975189;28;20019;-78
2022/03/25 10:33:49;;;;;;;74.57;39.15;;;26.80;29.40;;;;;;4975233;28;20035;-78
2022/03/25 10:36:25;;;;;;;86.10;46.80;;;27.50;29.20;;;;;;4965565;28;20050;-78
2022/03/25 11:38:24;;;;;;;66.20;35.03;;;27.30;28.80;;;;;;5646912;22;20069;-78
2022/03/25 11:40:52;;;;;;;67.07;34.58;;;27.90;28.40;;;;;;5012027;28;21393;-78
2022/03/25 11:43:26;;;;;;;57.72;31.33;;;27.50;28.10;;;;;;5011801;28;20391;-78
2022/03/25 11:46:09;;;;;;;58.72;32.70;;;28.20;27.10;;;;;;5012043;28;20024;-78
2022/03/25 11:48:37;;;;;;;58.30;31.73;;;28.90;27.40;;;;;;5006306;28;20006;-78
2022/03/25 11:51:31;;;;;;;55.45;30.70;;;29.20;25.40;;;;;;5011831;28;20017;-78
2022/03/25 11:53:57;;;;;;;46.25;25.52;;;28.40;27.10;;;;;;5005383;28;20117;-78
2022/03/25 11:56:23;;;;;;;47.75;25.77;;;28.60;25.30;;;;;;5011405;28;20635;-78
2022/03/25 11:58:54;;;;;;;53.38;29.48;;;30.10;23.80;;;;;;5011916;28;20022;-78
2022/03/25 12:01:21;;;;;;;50.50;25.67;;;27.80;25.50;;;;;;5011713;28;20018;-78
2022/03/25 12:03:49;;;;;;;45.65;21.75;;;27.60;25.80;;;;;;5011552;28;20096;-78
2022/03/25 12:06:18;;;;;;;40.95;22.17;;;28.00;24.70;;;;;;4994103;28;20216;-78
2022/03/25 12:09:08;;;;;;;35.42;20.85;;;28.10;25.20;;;;;;5010945;28;20501;-78
2022/03/25 12:11:58;;;;;;;37.38;20.75;;;28.80;24.40;;;;;;5010506;28;20045;-78
2022/03/25 12:14:31;;;;;;;36.78;19.75;;;27.60;25.10;;;;;;5010117;28;20112;-78
2022/03/25 12:17:00;;;;;;;39.72;20.92;;;26.00;24.30;;;;;;5010779;28;20052;-78
2022/03/25 12:19:26;;;;;;;30.38;17.05;;;27.00;24.60;;;;;;5011535;28;20033;-79
2022/03/25 12:21:57;;;;;;;27.90;14.95;;;27.90;24.50;;;;;;4993523;28;20018;-78
2022/03/25 12:24:25;;;;;;;29.63;16.15;;;28.00;22.90;;;;;;5010860;28;20417;-77
2022/03/25 12:27:00;;;;;;;31.00;15.98;;;29.30;22.70;;;;;;5011153;28;20014;-78
2022/03/25 12:29:30;;;;;;;23.95;14.75;;;28.50;22.30;;;;;;5005409;28;20044;-78
2022/03/25 12:31:56;;;;;;;27.55;15.65;;;27.50;22.50;;;;;;5010954;28;20105;-78
2022/03/25 12:34:41;;;;;;;19.27;12.57;;;25.60;24.10;;;;;;5010985;28;20048;-78
2022/03/25 12:37:13;;;;;;;18.67;11.85;;;24.90;24.80;;;;;;5010940;28;20433;-78
2022/03/25 13:37:32;;;;;;;13.63;5.93;;;29.90;20.90;;;;;;6113725;22;20177;-80
2022/03/25 13:39:58;;;;;;;14.77;6.63;;;30.20;21.30;;;;;;4994422;28;20030;-79
2022/03/25 13:42:35;;;;;;;11.82;4.70;;;28.60;20.60;;;;;;4995082;28;20018;-79
2022/03/25 13:45:11;;;;;;;16.30;5.95;;;29.60;20.80;;;;;;5013127;28;20382;-79
2022/03/25 13:47:37;;;;;;;12.48;5.93;;;30.60;20.40;;;;;;5008581;28;20030;-79
2022/03/25 13:50:19;;;;;;;13.70;8.38;;;31.40;20.70;;;;;;5014202;28;20018;-79
2022/03/25 13:52:59;;;;;;;;;;;30.00;20.40;;;;;;5014131;28;20028;-79
2022/03/25 13:55:33;;;;;;;14.60;7.10;;;29.10;21.50;;;;;;5014038;28;19996;-79
2022/03/25 13:58:00;;;;;;;21.23;9.70;;;31.20;21.30;;;;;;5013782;28;20048;-78
2022/03/25 14:00:36;;;;;;;19.20;9.48;;;29.40;20.80;;;;;;5014208;28;20014;-79
2022/03/25 14:03:03;;;;;;;20.90;10.05;;;30.90;21.70;;;;;;5013788;28;20026;-79
2022/03/25 14:05:34;;;;;;;25.13;15.02;;;32.10;22.00;;;;;;5013886;28;20116;-78
2022/03/25 14:08:00;;;;;;;;;;;31.30;21.60;;;;;;5013789;28;20410;-79
2022/03/25 14:10:26;;;;;;;26.73;15.68;;;29.80;22.60;;;;;;5013648;28;19913;-79
2022/03/25 14:13:04;;;;;;;33.78;16.92;;;28.00;24.70;;;;;;5013962;28;20370;-79
2022/03/25 14:15:30;;;;;;;28.95;16.67;;;25.80;26.20;;;;;;5013722;28;20045;-79
2022/03/25 14:17:56;;;;;;;34.88;17.27;;;24.60;27.10;;;;;;5012843;28;20010;-79
2022/03/25 14:20:28;;;;;;;32.28;17.88;;;23.00;28.30;;;;;;5013429;28;20029;-79
2022/03/25 14:22:55;;;;;;;28.08;16.15;;;22.30;29.50;;;;;;5006347;28;20057;-79
2022/03/25 14:25:23;;;;;;;34.38;19.13;;;21.90;32.20;;;;;;5013642;28;21169;-79
2022/03/25 14:27:56;;;;;;;34.60;19.35;;;22.10;31.00;;;;;;5013289;28;20041;-79
2022/03/25 14:30:22;;;;;;;32.35;18.30;;;22.00;32.10;;;;;;5013678;28;20477;-79
2022/03/25 14:32:49;;;;;;;31.33;18.05;;;22.30;32.70;;;;;;5013127;28;20022;-79
2022/03/25 14:35:16;;;;;;;36.47;19.25;;;23.20;30.40;;;;;;4995275;28;20026;-79
2022/03/25 15:39:59;;;;;;;22.95;10.60;;;27.60;26.20;;;;;;5068125;22;20049;-79
2022/03/25 15:42:25;;;;;;;19.52;9.63;;;26.90;25.70;;;;;;5011347;28;20029;-79
2022/03/25 15:44:51;;;;;;;20.23;10.02;;;25.60;26.90;;;;;;5004473;28;20045;-79
2022/03/25 15:47:17;;;;;;;21.52;9.88;;;25.30;28.00;;;;;;5010360;28;20105;-79
2022/03/25 15:49:42;;;;;;;20.75;10.43;;;24.30;28.40;;;;;;5010466;28;20104;-80
2022/03/25 15:52:09;;;;;;;19.85;10.15;;;23.40;29.60;;;;;;5010770;28;20064;-79
2022/03/25 15:54:35;;;;;;;22.40;10.45;;;24.20;30.80;;;;;;5011007;28;20466;-79
2022/03/25 15:57:01;;;;;;;19.88;10.95;;;23.90;29.50;;;;;;5010915;28;20446;-78
2022/03/25 15:59:28;;;;;;;21.10;9.70;;;24.80;29.00;;;;;;5009774;28;20018;-78
2022/03/25 16:01:54;;;;;;;21.38;9.40;;;24.80;28.30;;;;;;5008967;28;20021;-78
2022/03/25 16:04:19;;;;;;;20.15;9.48;;;24.40;28.90;;;;;;5011292;28;20038;-78
2022/03/25 16:06:45;;;;;;;25.00;8.77;;;24.20;28.60;;;;;;5011323;28;20025;-78
2022/03/25 16:09:11;;;;;;;17.13;7.82;;;23.80;29.30;;;;;;5003716;28;20493;-78
2022/03/25 16:11:38;;;;;;;27.05;8.18;;;23.50;29.70;;;;;;5009777;28;20030;-78
2022/03/25 16:14:03;;;;;;;22.73;8.40;;;23.10;30.00;;;;;;5006772;28;20049;-78
2022/03/25 16:16:29;;;;;;;23.48;8.50;;;23.00;29.60;;;;;;5005052;28;20037;-79
2022/03/25 16:18:55;;;;;;;27.17;9.02;;;22.60;30.90;;;;;;5009959;28;20021;-78
2022/03/25 16:21:21;;;;;;;20.48;8.60;;;22.00;31.50;;;;;;5010526;28;20018;-78
2022/03/25 16:23:47;;;;;;;20.88;8.10;;;21.70;33.60;;;;;;5010903;28;20030;-77
2022/03/25 16:26:13;;;;;;;23.38;8.15;;;21.90;33.30;;;;;;5004820;28;20511;-79
2022/03/25 16:28:38;;;;;;;22.52;8.90;;;21.60;32.60;;;;;;5009749;28;20028;-78
2022/03/25 16:31:04;;;;;;;18.75;7.18;;;20.80;33.90;;;;;;5010181;28;20076;-78
2022/03/25 16:33:31;;;;;;;15.32;7.40;;;20.70;35.60;;;;;;5010748;28;20054;-80
2022/03/25 16:36:01;;;;;;;16.73;6.65;;;20.80;33.90;;;;;;5010600;28;20049;-78
2022/03/25 17:38:01;;;;;;;18.58;5.70;;;17.50;38.70;;;;;;5972123;23;20049;-75
2022/03/25 17:40:27;;;;;;;15.50;5.63;;;17.00;41.40;;;;;;4992688;28;20032;-75
2022/03/25 17:42:53;;;;;;;10.90;5.47;;;16.50;42.20;;;;;;5010339;28;20436;-74
2022/03/25 17:45:19;;;;;;;16.15;5.70;;;16.10;41.00;;;;;;5010286;28;20113;-75
2022/03/25 17:47:44;;;;;;;16.88;5.75;;;15.80;42.40;;;;;;5010138;28;20030;-74
2022/03/25 17:50:10;;;;;;;14.60;5.43;;;15.50;43.50;;;;;;5010226;28;20782;-74
2022/03/25 17:52:36;;;;;;;13.65;5.60;;;15.20;44.50;;;;;;5010535;28;20068;-74
2022/03/25 17:55:02;;;;;;;11.07;5.28;;;14.90;47.10;;;;;;5013377;28;20034;-74
2022/03/25 17:57:29;;;;;;;14.88;5.57;;;14.70;45.50;;;;;;5013797;28;20021;-74
2022/03/25 17:59:56;;;;;;;16.05;5.75;;;14.60;46.90;;;;;;5013536;28;20018;-74
2022/03/25 18:02:23;;;;;;;14.27;5.97;;;14.30;46.80;;;;;;5013295;28;20026;-74
2022/03/25 18:04:50;;;;;;;12.48;5.75;;;14.20;47.00;;;;;;5013218;28;20057;-74
2022/03/25 18:07:16;;;;;;;17.60;6.07;;;14.00;47.40;;;;;;5012959;28;20371;-74
2022/03/25 18:09:41;;;;;;;11.77;4.82;;;13.90;48.80;;;;;;5012941;28;20034;-74
2022/03/25 18:12:08;;;;;;;14.40;5.32;;;13.70;50.50;;;;;;4995542;28;20022;-74
2022/03/25 18:14:34;;;;;;;16.13;5.72;;;13.50;49.70;;;;;;5012237;28;20122;-74
2022/03/25 18:17:01;;;;;;;19.15;5.10;;;13.40;48.00;;;;;;5011775;28;20482;-74
2022/03/25 18:19:27;;;;;;;12.55;5.35;;;13.30;48.60;;;;;;5012106;28;20096;-74
2022/03/25 18:21:56;;;;;;;15.20;4.82;;;13.10;49.30;;;;;;5013044;28;20021;-74
2022/03/25 18:24:25;;;;;;;9.15;4.75;;;13.00;48.40;;;;;;5011968;28;20083;-74
2022/03/25 18:26:52;;;;;;;15.50;5.03;;;12.90;49.20;;;;;;5012123;28;20046;-74
2022/03/25 18:29:18;;;;;;;11.45;4.85;;;12.70;50.90;;;;;;5012693;28;20063;-74
2022/03/25 18:31:44;;;;;;;17.20;4.78;;;12.60;51.20;;;;;;5011772;28;20036;-74
2022/03/25 18:34:11;;;;;;;17.27;4.90;;;12.50;50.10;;;;;;5011215;28;20092;-74
2022/03/25 18:36:37;;;;;;;13.13;5.38;;;12.50;50.60;;;;;;5011760;28;20481;-74
2022/03/25 19:38:36;;;;;;;23.88;9.98;;;10.10;60.30;;;;;;5759206;22;19964;-75
2022/03/25 19:41:02;;;;;;;22.38;8.50;;;10.00;60.90;;;;;;5011726;28;20026;-75
2022/03/25 19:43:30;;;;;;;26.55;10.57;;;10.00;61.40;;;;;;5011974;28;20041;-75